sensor_id;sensor_type;location;lat;lon;timestamp;temperature;humidity
23207;DHT22;11773;52.570;13.052;2022-10-16T00:01:53;16.10;99.90
23207;DHT22;11773;52.570;13.052;2022-10-16T00:04:22;16.20;99.90
23207;DHT22;11773;52.570;13.052;2022-10-16T00:06:52;16.20;99.90
23207;DHT22;11773;52.570;13.052;2022-10-16T00:09:21;16.30;99.90
23207;DHT22;11773;52.570;13.052;2022-10-16T00:11:51;16.20;99.90
23207;DHT22;11773;52.570;13.052;2022-10-16T00:14:21;16.20;99.90
23207;DHT22;11773;52.570;13.052;2022-10-16T00:16:50;16.30;99.90
23207;DHT22;11773;52.570;13.052;2022-10-16T00:19:19;16.30;99.90
23207;DHT22;11773;52.570;13.052;2022-10-16T00:21:49;16.30;99.90
23207;DHT22;11773;52.570;13.052;2022-10-16T00:24:18;16.30;99.90
23207;DHT22;11773;52.570;13.052;2022-10-16T00:26:49;16.30;99.90
23207;DHT22;11773;52.570;13.052;2022-10-16T00:29:19;16.30;99.90
23207;DHT22;11773;52.570;13.052;2022-10-16T00:31:48;16.30;99.90
23207;DHT22;11773;52.570;13.052;2022-10-16T00:34:18;16.20;99.90
23207;DHT22;11773;52.570;13.052;2022-10-16T00:36:47;16.20;99.90
23207;DHT22;11773;52.570;13.052;2022-10-16T00:39:17;16.10;99.90
23207;DHT22;11773;52.570;13.052;2022-10-16T00:41:46;16.10;99.90
23207;DHT22;11773;52.570;13.052;2022-10-16T00:44:51;16.20;99.90
23207;DHT22;11773;52.570;13.052;2022-10-16T00:50:08;16.20;99.90
23207;DHT22;11773;52.570;13.052;2022-10-16T00:52:41;16.20;99.90
23207;DHT22;11773;52.570;13.052;2022-10-16T00:55:13;16.20;99.90
23207;DHT22;11773;52.570;13.052;2022-10-16T00:57:43;16.20;99.90
23207;DHT22;11773;52.570;13.052;2022-10-16T01:00:19;16.30;99.90
23207;DHT22;11773;52.570;13.052;2022-10-16T01:03:00;16.20;99.90
23207;DHT22;11773;52.570;13.052;2022-10-16T01:05:39;16.20;99.90
23207;DHT22;11773;52.570;13.052;2022-10-16T01:08:17;16.20;99.90
23207;DHT22;11773;52.570;13.052;2022-10-16T01:11:10;16.20;99.90
23207;DHT22;11773;52.570;13.052;2022-10-16T01:13:41;16.20;99.90
23207;DHT22;11773;52.570;13.052;2022-10-16T01:19:16;16.20;99.90
23207;DHT22;11773;52.570;13.052;2022-10-16T01:21:53;16.30;99.90
23207;DHT22;11773;52.570;13.052;2022-10-16T01:24:40;16.30;99.90
23207;DHT22;11773;52.570;13.052;2022-10-16T01:27:28;16.20;99.90
23207;DHT22;11773;52.570;13.052;2022-10-16T01:30:04;16.20;99.90
23207;DHT22;11773;52.570;13.052;2022-10-16T01:32:49;16.20;99.90
23207;DHT22;11773;52.570;13.052;2022-10-16T01:35:27;16.30;99.90
23207;DHT22;11773;52.570;13.052;2022-10-16T01:38:29;16.30;99.90
23207;DHT22;11773;52.570;13.052;2022-10-16T01:40:49;16.30;99.90
23207;DHT22;11773;52.570;13.052;2022-10-16T01:43:22;16.30;99.90
23207;DHT22;11773;52.570;13.052;2022-10-16T01:46:00;16.30;99.90
23207;DHT22;11773;52.570;13.052;2022-10-16T01:48:32;16.30;99.90
23207;DHT22;11773;52.570;13.052;2022-10-16T01:51:11;16.20;99.90
23207;DHT22;11773;52.570;13.052;2022-10-16T01:53:52;16.30;99.90
23207;DHT22;11773;52.570;13.052;2022-10-16T01:56:18;16.20;99.90
23207;DHT22;11773;52.570;13.052;2022-10-16T01:58:55;16.20;99.90
23207;DHT22;11773;52.570;13.052;2022-10-16T02:01:27;16.20;99.90
23207;DHT22;11773;52.570;13.052;2022-10-16T02:04:03;16.20;99.90
23207;DHT22;11773;52.570;13.052;2022-10-16T02:06:34;16.20;99.90
23207;DHT22;11773;52.570;13.052;2022-10-16T02:09:03;16.20;99.90
23207;DHT22;11773;52.570;13.052;2022-10-16T02:11:33;16.30;99.90
23207;DHT22;11773;52.570;13.052;2022-10-16T02:14:05;16.40;99.90
23207;DHT22;11773;52.570;13.052;2022-10-16T02:16:38;16.40;99.90
23207;DHT22;11773;52.570;13.052;2022-10-16T02:19:09;16.30;99.90
23207;DHT22;11773;52.570;13.052;2022-10-16T02:21:54;16.20;99.90
23207;DHT22;11773;52.570;13.052;2022-10-16T02:24:43;16.20;99.90
23207;DHT22;11773;52.570;13.052;2022-10-16T02:27:45;16.20;99.90
23207;DHT22;11773;52.570;13.052;2022-10-16T02:32:51;16.30;99.90
23207;DHT22;11773;52.570;13.052;2022-10-16T02:35:24;16.40;99.90
23207;DHT22;11773;52.570;13.052;2022-10-16T02:37:56;16.30;99.90
23207;DHT22;11773;52.570;13.052;2022-10-16T02:40:26;16.30;99.90
23207;DHT22;11773;52.570;13.052;2022-10-16T02:42:56;16.30;99.90
23207;DHT22;11773;52.570;13.052;2022-10-16T02:45:26;16.30;99.90
23207;DHT22;11773;52.570;13.052;2022-10-16T02:47:56;16.20;99.90
23207;DHT22;11773;52.570;13.052;2022-10-16T02:50:26;16.20;99.90
23207;DHT22;11773;52.570;13.052;2022-10-16T02:52:55;16.20;99.90
23207;DHT22;11773;52.570;13.052;2022-10-16T02:55:25;16.20;99.90
23207;DHT22;11773;52.570;13.052;2022-10-16T02:57:55;16.10;99.90
23207;DHT22;11773;52.570;13.052;2022-10-16T03:00:25;16.20;99.90
23207;DHT22;11773;52.570;13.052;2022-10-16T03:02:54;16.20;99.90
23207;DHT22;11773;52.570;13.052;2022-10-16T03:05:24;16.10;99.90
23207;DHT22;11773;52.570;13.052;2022-10-16T03:07:53;16.10;99.90
23207;DHT22;11773;52.570;13.052;2022-10-16T03:10:23;16.10;99.90
23207;DHT22;11773;52.570;13.052;2022-10-16T03:12:52;16.10;99.90
23207;DHT22;11773;52.570;13.052;2022-10-16T03:15:22;16.00;99.90
23207;DHT22;11773;52.570;13.052;2022-10-16T03:17:51;16.10;99.90
23207;DHT22;11773;52.570;13.052;2022-10-16T03:20:21;16.10;99.90
23207;DHT22;11773;52.570;13.052;2022-10-16T03:22:50;16.10;99.90
23207;DHT22;11773;52.570;13.052;2022-10-16T03:25:20;16.00;99.90
23207;DHT22;11773;52.570;13.052;2022-10-16T03:27:50;16.00;99.90
23207;DHT22;11773;52.570;13.052;2022-10-16T03:30:19;16.00;99.90
23207;DHT22;11773;52.570;13.052;2022-10-16T03:32:49;16.00;99.90
23207;DHT22;11773;52.570;13.052;2022-10-16T03:35:21;16.00;99.90
23207;DHT22;11773;52.570;13.052;2022-10-16T03:37:51;16.00;99.90
23207;DHT22;11773;52.570;13.052;2022-10-16T03:40:21;15.90;99.90
23207;DHT22;11773;52.570;13.052;2022-10-16T03:42:50;15.90;99.90
23207;DHT22;11773;52.570;13.052;2022-10-16T03:45:22;15.90;99.90
23207;DHT22;11773;52.570;13.052;2022-10-16T03:47:51;15.90;99.90
23207;DHT22;11773;52.570;13.052;2022-10-16T03:50:21;15.90;99.90
23207;DHT22;11773;52.570;13.052;2022-10-16T03:52:50;15.90;99.90
23207;DHT22;11773;52.570;13.052;2022-10-16T03:55:20;15.90;99.90
23207;DHT22;11773;52.570;13.052;2022-10-16T03:57:49;15.90;99.90
23207;DHT22;11773;52.570;13.052;2022-10-16T04:00:19;15.80;99.90
23207;DHT22;11773;52.570;13.052;2022-10-16T04:02:48;15.90;99.90
23207;DHT22;11773;52.570;13.052;2022-10-16T04:05:18;15.80;99.90
23207;DHT22;11773;52.570;13.052;2022-10-16T04:07:48;15.80;99.90
23207;DHT22;11773;52.570;13.052;2022-10-16T04:10:17;15.80;99.90
23207;DHT22;11773;52.570;13.052;2022-10-16T04:12:47;15.70;99.90
23207;DHT22;11773;52.570;13.052;2022-10-16T04:15:16;15.70;99.90
23207;DHT22;11773;52.570;13.052;2022-10-16T04:17:46;15.70;99.90
23207;DHT22;11773;52.570;13.052;2022-10-16T04:20:15;15.70;99.90
23207;DHT22;11773;52.570;13.052;2022-10-16T04:22:45;15.80;99.90
23207;DHT22;11773;52.570;13.052;2022-10-16T04:25:14;15.80;99.90
23207;DHT22;11773;52.570;13.052;2022-10-16T04:27:44;15.70;99.90
23207;DHT22;11773;52.570;13.052;2022-10-16T04:30:13;15.70;99.90
23207;DHT22;11773;52.570;13.052;2022-10-16T04:32:43;15.70;99.90
23207;DHT22;11773;52.570;13.052;2022-10-16T04:35:14;15.70;99.90
23207;DHT22;11773;52.570;13.052;2022-10-16T04:37:44;15.60;99.90
23207;DHT22;11773;52.570;13.052;2022-10-16T04:40:14;15.70;99.90
23207;DHT22;11773;52.570;13.052;2022-10-16T04:42:44;15.60;99.90
23207;DHT22;11773;52.570;13.052;2022-10-16T04:45:13;15.60;99.90
23207;DHT22;11773;52.570;13.052;2022-10-16T04:47:44;15.60;99.90
23207;DHT22;11773;52.570;13.052;2022-10-16T04:50:13;15.60;99.90
23207;DHT22;11773;52.570;13.052;2022-10-16T04:52:43;15.50;99.90
23207;DHT22;11773;52.570;13.052;2022-10-16T04:55:13;15.60;99.90
23207;DHT22;11773;52.570;13.052;2022-10-16T04:57:43;15.50;99.90
23207;DHT22;11773;52.570;13.052;2022-10-16T05:00:12;15.50;99.90
23207;DHT22;11773;52.570;13.052;2022-10-16T05:02:42;15.50;99.90
23207;DHT22;11773;52.570;13.052;2022-10-16T05:05:11;15.40;99.90
23207;DHT22;11773;52.570;13.052;2022-10-16T05:07:41;15.40;99.90
23207;DHT22;11773;52.570;13.052;2022-10-16T05:10:11;15.50;99.90
23207;DHT22;11773;52.570;13.052;2022-10-16T05:12:40;15.40;99.90
23207;DHT22;11773;52.570;13.052;2022-10-16T05:15:10;15.30;99.90
23207;DHT22;11773;52.570;13.052;2022-10-16T05:17:40;15.40;99.90
23207;DHT22;11773;52.570;13.052;2022-10-16T05:20:11;15.30;99.90
23207;DHT22;11773;52.570;13.052;2022-10-16T05:22:41;15.30;99.90
23207;DHT22;11773;52.570;13.052;2022-10-16T05:25:10;15.30;99.90
23207;DHT22;11773;52.570;13.052;2022-10-16T05:27:40;15.30;99.90
23207;DHT22;11773;52.570;13.052;2022-10-16T05:30:09;15.30;99.90
23207;DHT22;11773;52.570;13.052;2022-10-16T05:32:39;15.20;99.90
23207;DHT22;11773;52.570;13.052;2022-10-16T05:35:08;15.20;99.90
23207;DHT22;11773;52.570;13.052;2022-10-16T05:37:39;15.20;99.90
23207;DHT22;11773;52.570;13.052;2022-10-16T05:40:09;15.30;99.90
23207;DHT22;11773;52.570;13.052;2022-10-16T05:42:40;15.30;99.90
23207;DHT22;11773;52.570;13.052;2022-10-16T05:45:11;15.30;99.90
23207;DHT22;11773;52.570;13.052;2022-10-16T05:47:40;15.30;99.90
23207;DHT22;11773;52.570;13.052;2022-10-16T05:50:10;15.30;99.90
23207;DHT22;11773;52.570;13.052;2022-10-16T05:52:39;15.30;99.90
23207;DHT22;11773;52.570;13.052;2022-10-16T05:55:09;15.30;99.90
23207;DHT22;11773;52.570;13.052;2022-10-16T05:57:38;15.30;99.90
23207;DHT22;11773;52.570;13.052;2022-10-16T06:00:09;15.30;99.90
23207;DHT22;11773;52.570;13.052;2022-10-16T06:02:39;15.30;99.90
23207;DHT22;11773;52.570;13.052;2022-10-16T06:05:08;15.30;99.90
23207;DHT22;11773;52.570;13.052;2022-10-16T06:07:38;15.30;99.90
23207;DHT22;11773;52.570;13.052;2022-10-16T06:10:08;15.40;99.90
23207;DHT22;11773;52.570;13.052;2022-10-16T06:12:37;15.40;99.90
23207;DHT22;11773;52.570;13.052;2022-10-16T06:15:07;15.50;99.90
23207;DHT22;11773;52.570;13.052;2022-10-16T06:17:37;15.50;99.90
23207;DHT22;11773;52.570;13.052;2022-10-16T06:20:07;15.50;99.90
23207;DHT22;11773;52.570;13.052;2022-10-16T06:22:37;15.50;99.90
23207;DHT22;11773;52.570;13.052;2022-10-16T06:25:07;15.60;99.90
23207;DHT22;11773;52.570;13.052;2022-10-16T06:27:41;15.50;99.90
23207;DHT22;11773;52.570;13.052;2022-10-16T06:30:11;15.50;99.90
23207;DHT22;11773;52.570;13.052;2022-10-16T06:32:40;15.50;99.90
23207;DHT22;11773;52.570;13.052;2022-10-16T06:35:09;15.50;99.90
23207;DHT22;11773;52.570;13.052;2022-10-16T06:37:39;15.60;99.90
23207;DHT22;11773;52.570;13.052;2022-10-16T06:40:08;15.50;99.90
23207;DHT22;11773;52.570;13.052;2022-10-16T06:42:38;15.70;99.90
23207;DHT22;11773;52.570;13.052;2022-10-16T06:45:08;15.80;99.90
23207;DHT22;11773;52.570;13.052;2022-10-16T06:47:38;15.80;99.90
23207;DHT22;11773;52.570;13.052;2022-10-16T06:50:07;15.90;99.90
23207;DHT22;11773;52.570;13.052;2022-10-16T06:52:37;15.90;99.90
23207;DHT22;11773;52.570;13.052;2022-10-16T06:55:07;16.00;99.90
23207;DHT22;11773;52.570;13.052;2022-10-16T06:57:36;16.00;99.90
23207;DHT22;11773;52.570;13.052;2022-10-16T07:00:06;16.10;99.90
23207;DHT22;11773;52.570;13.052;2022-10-16T07:02:36;16.10;99.90
23207;DHT22;11773;52.570;13.052;2022-10-16T07:05:06;16.20;99.90
23207;DHT22;11773;52.570;13.052;2022-10-16T07:07:35;16.10;99.90
23207;DHT22;11773;52.570;13.052;2022-10-16T07:10:05;16.10;99.90
23207;DHT22;11773;52.570;13.052;2022-10-16T07:12:35;16.20;99.90
23207;DHT22;11773;52.570;13.052;2022-10-16T07:15:05;16.20;99.90
23207;DHT22;11773;52.570;13.052;2022-10-16T07:17:34;16.30;99.90
23207;DHT22;11773;52.570;13.052;2022-10-16T07:20:04;16.40;99.90
23207;DHT22;11773;52.570;13.052;2022-10-16T07:22:34;16.50;99.90
23207;DHT22;11773;52.570;13.052;2022-10-16T07:25:04;16.50;99.90
23207;DHT22;11773;52.570;13.052;2022-10-16T07:27:34;16.60;99.90
23207;DHT22;11773;52.570;13.052;2022-10-16T07:30:05;16.60;99.90
23207;DHT22;11773;52.570;13.052;2022-10-16T07:32:35;16.70;99.90
23207;DHT22;11773;52.570;13.052;2022-10-16T07:35:05;16.70;99.90
23207;DHT22;11773;52.570;13.052;2022-10-16T07:37:35;16.70;99.90
23207;DHT22;11773;52.570;13.052;2022-10-16T07:40:05;16.70;99.90
23207;DHT22;11773;52.570;13.052;2022-10-16T07:42:35;16.70;99.90
23207;DHT22;11773;52.570;13.052;2022-10-16T07:45:05;16.70;99.90
23207;DHT22;11773;52.570;13.052;2022-10-16T07:47:35;16.80;99.90
23207;DHT22;11773;52.570;13.052;2022-10-16T07:50:05;16.90;99.90
23207;DHT22;11773;52.570;13.052;2022-10-16T07:52:34;16.90;99.90
23207;DHT22;11773;52.570;13.052;2022-10-16T07:55:04;16.90;99.90
23207;DHT22;11773;52.570;13.052;2022-10-16T07:57:34;16.90;99.90
23207;DHT22;11773;52.570;13.052;2022-10-16T08:00:03;16.80;99.90
23207;DHT22;11773;52.570;13.052;2022-10-16T08:02:33;16.90;99.90
23207;DHT22;11773;52.570;13.052;2022-10-16T08:05:03;16.90;99.90
23207;DHT22;11773;52.570;13.052;2022-10-16T08:07:33;17.00;99.90
23207;DHT22;11773;52.570;13.052;2022-10-16T08:10:02;17.00;99.90
23207;DHT22;11773;52.570;13.052;2022-10-16T08:12:32;17.10;99.90
23207;DHT22;11773;52.570;13.052;2022-10-16T08:15:02;17.00;99.90
23207;DHT22;11773;52.570;13.052;2022-10-16T08:17:31;17.10;99.90
23207;DHT22;11773;52.570;13.052;2022-10-16T08:20:02;17.20;99.90
23207;DHT22;11773;52.570;13.052;2022-10-16T08:22:32;17.20;99.90
23207;DHT22;11773;52.570;13.052;2022-10-16T08:25:02;17.30;99.90
23207;DHT22;11773;52.570;13.052;2022-10-16T08:27:32;17.30;99.90
23207;DHT22;11773;52.570;13.052;2022-10-16T08:30:02;17.20;99.90
23207;DHT22;11773;52.570;13.052;2022-10-16T08:32:32;17.30;99.90
23207;DHT22;11773;52.570;13.052;2022-10-16T08:35:02;17.40;99.90
23207;DHT22;11773;52.570;13.052;2022-10-16T08:37:32;17.50;99.90
23207;DHT22;11773;52.570;13.052;2022-10-16T08:40:04;17.50;99.90
23207;DHT22;11773;52.570;13.052;2022-10-16T08:45:21;17.50;99.90
23207;DHT22;11773;52.570;13.052;2022-10-16T08:50:57;17.80;99.90
23207;DHT22;11773;52.570;13.052;2022-10-16T08:53:43;17.90;99.90
23207;DHT22;11773;52.570;13.052;2022-10-16T08:56:13;17.80;99.90
23207;DHT22;11773;52.570;13.052;2022-10-16T08:58:45;17.90;99.90
23207;DHT22;11773;52.570;13.052;2022-10-16T09:01:18;17.90;99.90
23207;DHT22;11773;52.570;13.052;2022-10-16T09:06:50;18.20;99.90
23207;DHT22;11773;52.570;13.052;2022-10-16T09:09:49;18.40;99.90
23207;DHT22;11773;52.570;13.052;2022-10-16T09:12:22;18.40;99.90
23207;DHT22;11773;52.570;13.052;2022-10-16T09:14:59;18.40;99.90
23207;DHT22;11773;52.570;13.052;2022-10-16T09:18:10;18.50;99.90
23207;DHT22;11773;52.570;13.052;2022-10-16T09:20:45;18.60;99.90
23207;DHT22;11773;52.570;13.052;2022-10-16T09:23:22;18.50;99.90
23207;DHT22;11773;52.570;13.052;2022-10-16T09:25:56;18.40;99.90
23207;DHT22;11773;52.570;13.052;2022-10-16T09:28:27;18.50;99.90
23207;DHT22;11773;52.570;13.052;2022-10-16T09:30:57;18.50;99.90
23207;DHT22;11773;52.570;13.052;2022-10-16T09:33:35;18.50;99.90
23207;DHT22;11773;52.570;13.052;2022-10-16T09:36:06;18.40;99.90
23207;DHT22;11773;52.570;13.052;2022-10-16T09:38:38;18.60;99.90
23207;DHT22;11773;52.570;13.052;2022-10-16T09:41:19;18.60;99.90
23207;DHT22;11773;52.570;13.052;2022-10-16T09:43:55;18.70;99.90
23207;DHT22;11773;52.570;13.052;2022-10-16T09:46:32;18.80;99.90
23207;DHT22;11773;52.570;13.052;2022-10-16T09:49:22;18.80;99.90
23207;DHT22;11773;52.570;13.052;2022-10-16T09:51:49;18.80;99.90
23207;DHT22;11773;52.570;13.052;2022-10-16T09:54:21;18.90;99.90
23207;DHT22;11773;52.570;13.052;2022-10-16T09:56:50;18.90;99.90
23207;DHT22;11773;52.570;13.052;2022-10-16T09:59:22;18.90;99.90
23207;DHT22;11773;52.570;13.052;2022-10-16T10:01:54;19.10;99.90
23207;DHT22;11773;52.570;13.052;2022-10-16T10:04:26;19.20;99.90
23207;DHT22;11773;52.570;13.052;2022-10-16T10:06:58;19.20;99.90
23207;DHT22;11773;52.570;13.052;2022-10-16T10:09:32;19.20;99.90
23207;DHT22;11773;52.570;13.052;2022-10-16T10:12:14;19.20;99.90
23207;DHT22;11773;52.570;13.052;2022-10-16T10:14:57;19.20;99.90
23207;DHT22;11773;52.570;13.052;2022-10-16T10:17:29;19.30;99.90
23207;DHT22;11773;52.570;13.052;2022-10-16T10:20:00;19.30;99.90
23207;DHT22;11773;52.570;13.052;2022-10-16T10:22:48;19.30;99.90
23207;DHT22;11773;52.570;13.052;2022-10-16T10:28:20;19.60;99.90
23207;DHT22;11773;52.570;13.052;2022-10-16T10:31:14;19.50;99.90
23207;DHT22;11773;52.570;13.052;2022-10-16T10:33:51;19.60;99.90
23207;DHT22;11773;52.570;13.052;2022-10-16T10:36:36;19.60;99.90
23207;DHT22;11773;52.570;13.052;2022-10-16T10:50:56;20.00;99.90
23207;DHT22;11773;52.570;13.052;2022-10-16T10:53:55;19.90;99.90
23207;DHT22;11773;52.570;13.052;2022-10-16T10:56:47;19.80;99.90
23207;DHT22;11773;52.570;13.052;2022-10-16T10:59:37;19.80;99.90
23207;DHT22;11773;52.570;13.052;2022-10-16T11:02:26;20.00;99.90
23207;DHT22;11773;52.570;13.052;2022-10-16T11:05:15;19.90;99.90
23207;DHT22;11773;52.570;13.052;2022-10-16T11:10:46;19.90;99.90
23207;DHT22;11773;52.570;13.052;2022-10-16T11:13:33;19.90;99.90
23207;DHT22;11773;52.570;13.052;2022-10-16T11:16:34;19.90;99.90
23207;DHT22;11773;52.570;13.052;2022-10-16T11:19:25;19.80;99.90
23207;DHT22;11773;52.570;13.052;2022-10-16T11:22:29;19.80;99.90
23207;DHT22;11773;52.570;13.052;2022-10-16T11:25:14;19.90;99.90
23207;DHT22;11773;52.570;13.052;2022-10-16T11:30:57;20.00;99.90
23207;DHT22;11773;52.570;13.052;2022-10-16T11:36:19;20.00;99.90
23207;DHT22;11773;52.570;13.052;2022-10-16T11:38:58;20.00;99.90
23207;DHT22;11773;52.570;13.052;2022-10-16T11:41:45;20.00;99.90
23207;DHT22;11773;52.570;13.052;2022-10-16T11:50:06;20.10;99.90
23207;DHT22;11773;52.570;13.052;2022-10-16T11:52:40;20.20;99.90
23207;DHT22;11773;52.570;13.052;2022-10-16T11:55:44;20.10;99.90
23207;DHT22;11773;52.570;13.052;2022-10-16T11:58:23;20.10;99.90
23207;DHT22;11773;52.570;13.052;2022-10-16T12:00:58;20.30;99.90
23207;DHT22;11773;52.570;13.052;2022-10-16T12:06:47;20.20;99.90
23207;DHT22;11773;52.570;13.052;2022-10-16T12:09:32;20.20;99.90
23207;DHT22;11773;52.570;13.052;2022-10-16T12:12:04;20.10;99.90
23207;DHT22;11773;52.570;13.052;2022-10-16T12:14:43;20.10;99.90
23207;DHT22;11773;52.570;13.052;2022-10-16T12:17:38;20.20;99.90
23207;DHT22;11773;52.570;13.052;2022-10-16T12:23:03;20.10;99.90
23207;DHT22;11773;52.570;13.052;2022-10-16T12:25:34;20.20;99.90
23207;DHT22;11773;52.570;13.052;2022-10-16T12:31:04;20.20;99.90
23207;DHT22;11773;52.570;13.052;2022-10-16T12:33:42;20.20;99.90
23207;DHT22;11773;52.570;13.052;2022-10-16T12:36:16;20.20;99.90
23207;DHT22;11773;52.570;13.052;2022-10-16T12:38:51;20.10;99.90
23207;DHT22;11773;52.570;13.052;2022-10-16T12:41:26;20.20;99.90
23207;DHT22;11773;52.570;13.052;2022-10-16T12:44:02;20.20;99.90
23207;DHT22;11773;52.570;13.052;2022-10-16T12:46:38;20.20;99.90
23207;DHT22;11773;52.570;13.052;2022-10-16T12:49:22;20.30;99.90
23207;DHT22;11773;52.570;13.052;2022-10-16T12:52:00;20.30;99.90
23207;DHT22;11773;52.570;13.052;2022-10-16T12:54:37;20.30;99.90
23207;DHT22;11773;52.570;13.052;2022-10-16T12:57:32;20.30;99.90
23207;DHT22;11773;52.570;13.052;2022-10-16T13:00:28;20.20;99.90
23207;DHT22;11773;52.570;13.052;2022-10-16T13:03:21;20.20;99.90
23207;DHT22;11773;52.570;13.052;2022-10-16T13:06:30;20.20;99.90
23207;DHT22;11773;52.570;13.052;2022-10-16T13:09:25;20.10;99.90
23207;DHT22;11773;52.570;13.052;2022-10-16T13:15:25;20.10;99.90
23207;DHT22;11773;52.570;13.052;2022-10-16T13:18:27;20.10;99.90
23207;DHT22;11773;52.570;13.052;2022-10-16T13:21:16;20.10;99.90
23207;DHT22;11773;52.570;13.052;2022-10-16T13:24:22;20.20;99.90
23207;DHT22;11773;52.570;13.052;2022-10-16T13:27:18;20.30;99.90
23207;DHT22;11773;52.570;13.052;2022-10-16T13:30:15;20.20;99.90
23207;DHT22;11773;52.570;13.052;2022-10-16T13:33:06;20.20;99.90
23207;DHT22;11773;52.570;13.052;2022-10-16T13:35:36;20.20;99.90
23207;DHT22;11773;52.570;13.052;2022-10-16T13:38:13;20.30;99.90
23207;DHT22;11773;52.570;13.052;2022-10-16T13:40:57;20.30;99.90
23207;DHT22;11773;52.570;13.052;2022-10-16T13:43:34;20.20;99.90
23207;DHT22;11773;52.570;13.052;2022-10-16T13:46:16;20.20;99.90
23207;DHT22;11773;52.570;13.052;2022-10-16T13:48:58;20.30;99.90
23207;DHT22;11773;52.570;13.052;2022-10-16T13:51:30;20.20;99.90
23207;DHT22;11773;52.570;13.052;2022-10-16T13:54:01;20.20;99.90
23207;DHT22;11773;52.570;13.052;2022-10-16T13:56:32;20.20;99.90
23207;DHT22;11773;52.570;13.052;2022-10-16T13:59:04;20.20;99.90
23207;DHT22;11773;52.570;13.052;2022-10-16T14:01:41;20.20;99.90
23207;DHT22;11773;52.570;13.052;2022-10-16T14:04:13;20.20;99.90
23207;DHT22;11773;52.570;13.052;2022-10-16T14:06:46;20.20;99.90
23207;DHT22;11773;52.570;13.052;2022-10-16T14:09:26;20.10;99.90
23207;DHT22;11773;52.570;13.052;2022-10-16T14:12:03;20.10;99.90
23207;DHT22;11773;52.570;13.052;2022-10-16T14:14:56;20.10;99.90
23207;DHT22;11773;52.570;13.052;2022-10-16T14:17:33;20.10;99.90
23207;DHT22;11773;52.570;13.052;2022-10-16T14:20:05;20.10;99.90
23207;DHT22;11773;52.570;13.052;2022-10-16T14:22:38;20.10;99.90
23207;DHT22;11773;52.570;13.052;2022-10-16T14:25:24;20.10;99.90
23207;DHT22;11773;52.570;13.052;2022-10-16T14:28:16;20.10;99.90
23207;DHT22;11773;52.570;13.052;2022-10-16T14:33:33;20.00;99.90
23207;DHT22;11773;52.570;13.052;2022-10-16T14:36:05;20.00;99.90
23207;DHT22;11773;52.570;13.052;2022-10-16T14:38:48;19.90;99.90
23207;DHT22;11773;52.570;13.052;2022-10-16T14:41:12;19.80;99.90
23207;DHT22;11773;52.570;13.052;2022-10-16T14:43:43;19.80;99.90
23207;DHT22;11773;52.570;13.052;2022-10-16T14:46:20;19.70;99.90
23207;DHT22;11773;52.570;13.052;2022-10-16T14:48:54;19.70;99.90
23207;DHT22;11773;52.570;13.052;2022-10-16T14:51:31;19.80;99.90
23207;DHT22;11773;52.570;13.052;2022-10-16T14:54:00;19.80;99.90
23207;DHT22;11773;52.570;13.052;2022-10-16T14:56:44;19.80;99.90
23207;DHT22;11773;52.570;13.052;2022-10-16T14:59:10;19.80;99.90
23207;DHT22;11773;52.570;13.052;2022-10-16T15:01:47;19.70;99.90
23207;DHT22;11773;52.570;13.052;2022-10-16T15:04:16;19.60;99.90
23207;DHT22;11773;52.570;13.052;2022-10-16T15:06:46;19.60;99.90
23207;DHT22;11773;52.570;13.052;2022-10-16T15:09:16;19.60;99.90
23207;DHT22;11773;52.570;13.052;2022-10-16T15:11:45;19.60;99.90
23207;DHT22;11773;52.570;13.052;2022-10-16T15:14:15;19.50;99.90
23207;DHT22;11773;52.570;13.052;2022-10-16T15:16:44;19.50;99.90
23207;DHT22;11773;52.570;13.052;2022-10-16T15:19:14;19.50;99.90
23207;DHT22;11773;52.570;13.052;2022-10-16T15:21:43;19.50;99.90
23207;DHT22;11773;52.570;13.052;2022-10-16T15:24:14;19.40;99.90
23207;DHT22;11773;52.570;13.052;2022-10-16T15:26:45;19.40;99.90
23207;DHT22;11773;52.570;13.052;2022-10-16T15:29:15;19.40;99.90
23207;DHT22;11773;52.570;13.052;2022-10-16T15:31:45;19.40;99.90
23207;DHT22;11773;52.570;13.052;2022-10-16T15:34:15;19.20;99.90
23207;DHT22;11773;52.570;13.052;2022-10-16T15:36:46;19.20;99.90
23207;DHT22;11773;52.570;13.052;2022-10-16T15:39:20;19.10;99.90
23207;DHT22;11773;52.570;13.052;2022-10-16T15:41:48;19.10;99.90
23207;DHT22;11773;52.570;13.052;2022-10-16T15:44:19;19.10;99.90
23207;DHT22;11773;52.570;13.052;2022-10-16T15:46:51;19.00;99.90
23207;DHT22;11773;52.570;13.052;2022-10-16T15:49:23;18.90;99.90
23207;DHT22;11773;52.570;13.052;2022-10-16T15:51:52;18.90;99.90
23207;DHT22;11773;52.570;13.052;2022-10-16T15:54:22;18.90;99.90
23207;DHT22;11773;52.570;13.052;2022-10-16T15:56:52;18.70;99.90
23207;DHT22;11773;52.570;13.052;2022-10-16T15:59:21;18.70;99.90
23207;DHT22;11773;52.570;13.052;2022-10-16T16:01:50;18.70;99.90
23207;DHT22;11773;52.570;13.052;2022-10-16T16:04:20;18.70;99.90
23207;DHT22;11773;52.570;13.052;2022-10-16T16:06:52;18.60;99.90
23207;DHT22;11773;52.570;13.052;2022-10-16T16:09:22;18.50;99.90
23207;DHT22;11773;52.570;13.052;2022-10-16T16:11:51;18.40;99.90
23207;DHT22;11773;52.570;13.052;2022-10-16T16:14:21;18.30;99.90
23207;DHT22;11773;52.570;13.052;2022-10-16T16:16:51;18.20;99.90
23207;DHT22;11773;52.570;13.052;2022-10-16T16:19:21;18.20;99.90
23207;DHT22;11773;52.570;13.052;2022-10-16T16:21:51;18.20;99.90
23207;DHT22;11773;52.570;13.052;2022-10-16T16:24:20;18.10;99.90
23207;DHT22;11773;52.570;13.052;2022-10-16T16:26:50;18.00;99.90
23207;DHT22;11773;52.570;13.052;2022-10-16T16:29:19;17.90;99.90
23207;DHT22;11773;52.570;13.052;2022-10-16T16:31:49;17.80;99.90
23207;DHT22;11773;52.570;13.052;2022-10-16T16:34:20;17.70;99.90
23207;DHT22;11773;52.570;13.052;2022-10-16T16:36:50;17.70;99.90
23207;DHT22;11773;52.570;13.052;2022-10-16T16:39:19;17.70;99.90
23207;DHT22;11773;52.570;13.052;2022-10-16T16:41:50;17.60;99.90
23207;DHT22;11773;52.570;13.052;2022-10-16T16:44:19;17.50;99.90
23207;DHT22;11773;52.570;13.052;2022-10-16T16:46:49;17.50;99.90
23207;DHT22;11773;52.570;13.052;2022-10-16T16:49:19;17.40;99.90
23207;DHT22;11773;52.570;13.052;2022-10-16T16:51:48;17.40;99.90
23207;DHT22;11773;52.570;13.052;2022-10-16T16:54:17;17.40;99.90
23207;DHT22;11773;52.570;13.052;2022-10-16T16:56:47;17.30;99.90
23207;DHT22;11773;52.570;13.052;2022-10-16T16:59:19;17.30;99.90